Time;durP1;ratioP1;P1;durP2;ratioP2;P2;SDS_P1;SDS_P2;PMS_P1;PMS_P2;Temp;Humidity;BMP_temperature;BMP_pressure;BME280_temperature;BME280_humidity;BME280_pressure;Samples;Min_cycle;Max_cycle;Signal;HPM_P1;HPM_P2
2023/04/09 00:01:27;;;;;;;9.80;5.20;;;;;;;;;;5051511;28;20033;-80
2023/04/09 00:04:05;;;;;;;7.53;4.72;;;;;;;;;;5050101;28;20033;-81
2023/04/09 00:06:30;;;;;;;8.93;5.22;;;;;;;;;;5052294;28;20497;-80
2023/04/09 00:08:56;;;;;;;11.63;5.30;;;;;;;;;;5050961;28;20103;-80
2023/04/09 00:11:35;;;;;;;8.32;5.28;;;;;;;;;;5053015;28;20071;-81
2023/04/09 00:14:07;;;;;;;12.35;5.22;;;;;;;;;;5049940;28;20477;-80
2023/04/09 00:16:46;;;;;;;13.68;5.30;;;;;;;;;;5042916;28;20078;-80
2023/04/09 00:19:11;;;;;;;7.75;5.03;;;;;;;;;;5049094;28;20076;-80
2023/04/09 00:21:37;;;;;;;8.55;3.50;;;;;;;;;;5046489;28;20077;-81
2023/04/09 00:24:15;;;;;;;7.60;4.03;;;;;;;;;;5049638;28;20086;-81
2023/04/09 00:26:40;;;;;;;6.97;3.50;;;;;;;;;;5052656;28;20140;-80
2023/04/09 00:29:06;;;;;;;7.10;3.78;;;;;;;;;;5045827;28;20509;-81
2023/04/09 00:31:44;;;;;;;7.57;4.38;;;;;;;;;;5051022;28;20496;-81
2023/04/09 00:34:10;;;;;;;10.63;5.18;;;;;;;;;;5047756;28;20497;-80
2023/04/09 00:36:35;;;;;;;9.05;4.72;;;;;;;;;;5048468;28;20049;-81
2023/04/09 00:39:14;;;;;;;10.70;5.75;;;;;;;;;;5047748;28;20079;-81
2023/04/09 00:41:39;;;;;;;9.40;5.97;;;;;;;;;;5052475;28;20048;-81
2023/04/09 00:44:05;;;;;;;11.10;5.47;;;;;;;;;;5044484;28;20033;-80
2023/04/09 00:46:43;;;;;;;8.63;5.38;;;;;;;;;;5046403;28;20048;-80
2023/04/09 00:49:08;;;;;;;11.98;5.47;;;;;;;;;;5041986;28;20044;-81
2023/04/09 00:51:34;;;;;;;9.73;5.20;;;;;;;;;;5044479;28;20032;-81
2023/04/09 00:54:13;;;;;;;12.32;5.03;;;;;;;;;;5047504;28;20108;-81
2023/04/09 00:56:39;;;;;;;9.98;5.85;;;;;;;;;;5052865;28;20115;-82
2023/04/09 00:59:04;;;;;;;8.38;5.25;;;;;;;;;;5050972;28;20113;-80
2023/04/09 01:01:43;;;;;;;11.27;6.15;;;;;;;;;;5039231;28;20065;-81
2023/04/09 01:04:09;;;;;;;13.25;6.05;;;;;;;;;;5054830;28;20445;-81
2023/04/09 01:06:54;;;;;;;10.20;6.35;;;;;;;;;;5065222;28;20064;-81
2023/04/09 01:09:39;;;;;;;16.23;6.30;;;;;;;;;;5051285;28;20048;-81
2023/04/09 01:12:34;;;;;;;13.02;6.88;;;;;;;;;;5053060;28;20090;-80
2023/04/09 01:15:09;;;;;;;10.63;6.28;;;;;;;;;;5034710;28;20052;-80
2023/04/09 01:17:55;;;;;;;10.85;6.60;;;;;;;;;;5052381;28;20029;-81
2023/04/09 01:20:26;;;;;;;14.07;6.35;;;;;;;;;;5036753;28;20041;-80
2023/04/09 01:23:42;;;;;;;12.35;5.78;;;;;;;;;;5042108;28;20454;-80
2023/04/09 01:26:29;;;;;;;6.82;3.20;;;;;;;;;;5047133;28;20047;-80
2023/04/09 01:29:08;;;;;;;10.05;4.07;;;;;;;;;;5046884;28;20025;-81
2023/04/09 01:31:36;;;;;;;8.82;4.60;;;;;;;;;;5053327;28;20048;-80
2023/04/09 01:34:16;;;;;;;9.75;5.00;;;;;;;;;;5051385;28;20033;-81
2023/04/09 01:36:46;;;;;;;11.00;4.95;;;;;;;;;;5052069;28;20051;-80
2023/04/09 01:39:24;;;;;;;13.20;4.85;;;;;;;;;;5033324;28;20428;-81
2023/04/09 01:41:50;;;;;;;6.65;4.20;;;;;;;;;;5055171;28;20039;-81
2023/04/09 01:44:16;;;;;;;10.02;4.82;;;;;;;;;;5054893;28;20032;-80
2023/04/09 01:46:54;;;;;;;9.95;4.47;;;;;;;;;;5050288;28;20044;-81
2023/04/09 01:49:20;;;;;;;11.50;5.00;;;;;;;;;;5049616;28;20057;-81
2023/04/09 01:51:46;;;;;;;14.40;5.68;;;;;;;;;;5048606;28;20542;-81
2023/04/09 01:54:24;;;;;;;10.55;5.13;;;;;;;;;;5055563;28;20547;-80
2023/04/09 01:56:50;;;;;;;15.15;5.53;;;;;;;;;;5046601;28;20037;-81
2023/04/09 01:59:15;;;;;;;10.77;4.85;;;;;;;;;;5046424;28;20115;-80
2023/04/09 02:01:59;;;;;;;6.95;3.78;;;;;;;;;;5046304;28;20041;-81
2023/04/09 02:04:43;;;;;;;6.75;3.60;;;;;;;;;;5046240;28;20544;-80
2023/04/09 02:07:32;;;;;;;13.90;4.05;;;;;;;;;;5048376;28;20120;-79
2023/04/09 02:09:58;;;;;;;10.55;4.32;;;;;;;;;;5047811;28;20055;-81
2023/04/09 02:12:32;;;;;;;10.85;4.43;;;;;;;;;;5041258;28;20111;-80
2023/04/09 02:15:04;;;;;;;;;;;;;;;;;;5053507;28;20045;-80
2023/04/09 02:17:29;;;;;;;7.75;4.95;;;;;;;;;;5054625;28;20388;-81
2023/04/09 02:20:01;;;;;;;15.18;5.50;;;;;;;;;;5055512;28;20057;-80
2023/04/09 02:22:33;;;;;;;8.20;4.20;;;;;;;;;;5053818;28;20135;-81
2023/04/09 02:24:58;;;;;;;10.52;4.00;;;;;;;;;;5055455;28;20044;-81
2023/04/09 02:27:30;;;;;;;8.40;3.88;;;;;;;;;;5052882;28;20477;-81
2023/04/09 02:30:02;;;;;;;9.38;4.10;;;;;;;;;;5055156;28;20041;-80
2023/04/09 02:32:28;;;;;;;12.43;4.93;;;;;;;;;;5054816;28;20484;-81
2023/04/09 02:34:59;;;;;;;12.98;5.38;;;;;;;;;;5053979;28;20047;-81
2023/04/09 02:37:31;;;;;;;15.02;5.97;;;;;;;;;;5045554;28;20401;-81
2023/04/09 02:39:56;;;;;;;10.98;5.38;;;;;;;;;;5045819;28;20041;-81
2023/04/09 02:42:28;;;;;;;10.65;5.13;;;;;;;;;;5052044;28;20086;-81
2023/04/09 02:45:00;;;;;;;9.20;4.25;;;;;;;;;;5045787;28;20452;-81
2023/04/09 02:47:26;;;;;;;11.57;5.47;;;;;;;;;;5042376;28;20099;-80
2023/04/09 02:49:57;;;;;;;13.50;5.43;;;;;;;;;;5049299;28;20493;-80
2023/04/09 02:52:29;;;;;;;8.95;4.43;;;;;;;;;;5054483;28;20045;-80
2023/04/09 02:54:54;;;;;;;18.58;5.03;;;;;;;;;;5054728;28;20084;-79
2023/04/09 02:57:26;;;;;;;12.77;5.15;;;;;;;;;;5053556;28;20034;-80
2023/04/09 02:59:58;;;;;;;11.25;5.18;;;;;;;;;;5054468;28;20056;-81
2023/04/09 03:02:23;;;;;;;10.32;5.28;;;;;;;;;;5051815;28;20072;-80
2023/04/09 03:04:55;;;;;;;10.93;5.50;;;;;;;;;;5041797;28;20060;-81
2023/04/09 03:07:28;;;;;;;14.35;5.07;;;;;;;;;;5054529;28;20087;-81
2023/04/09 03:09:53;;;;;;;13.90;4.75;;;;;;;;;;5048981;28;20041;-79
2023/04/09 03:12:25;;;;;;;15.05;4.57;;;;;;;;;;5047781;28;20029;-81
2023/04/09 03:14:57;;;;;;;11.38;4.40;;;;;;;;;;5053399;28;20087;-81
2023/04/09 03:17:25;;;;;;;13.55;4.55;;;;;;;;;;5053729;28;20427;-80
2023/04/09 03:20:04;;;;;;;10.82;5.28;;;;;;;;;;5042470;28;20040;-82
2023/04/09 03:22:34;;;;;;;12.48;4.70;;;;;;;;;;5048097;28;20516;-80
2023/04/09 03:25:13;;;;;;;10.75;4.57;;;;;;;;;;5047779;28;20036;-81
2023/04/09 03:27:38;;;;;;;10.55;4.10;;;;;;;;;;5052658;28;20395;-81
2023/04/09 03:30:04;;;;;;;11.68;4.22;;;;;;;;;;5046961;28;20033;-81
2023/04/09 03:32:43;;;;;;;11.30;4.50;;;;;;;;;;5046550;28;20124;-81
2023/04/09 03:35:08;;;;;;;9.93;4.35;;;;;;;;;;5041779;28;20400;-80
2023/04/09 03:37:34;;;;;;;12.82;4.57;;;;;;;;;;5045874;28;20029;-81
2023/04/09 03:40:13;;;;;;;9.77;4.30;;;;;;;;;;5053279;28;20029;-81
2023/04/09 03:42:41;;;;;;;9.68;4.18;;;;;;;;;;5044748;28;20029;-80
2023/04/09 03:45:20;;;;;;;7.68;4.13;;;;;;;;;;5052565;28;20116;-80
2023/04/09 03:47:45;;;;;;;9.55;4.10;;;;;;;;;;5053625;28;20035;-80
2023/04/09 03:50:11;;;;;;;7.95;3.60;;;;;;;;;;5043081;28;20029;-80
2023/04/09 03:52:49;;;;;;;13.88;4.15;;;;;;;;;;5051767;28;20480;-79
2023/04/09 03:55:14;;;;;;;17.58;4.25;;;;;;;;;;5045150;28;20030;-81
2023/04/09 03:57:40;;;;;;;7.85;4.03;;;;;;;;;;5050150;28;20078;-80
2023/04/09 04:00:18;;;;;;;6.68;3.72;;;;;;;;;;5043451;28;20036;-81
2023/04/09 04:02:44;;;;;;;7.47;3.50;;;;;;;;;;5051486;28;20119;-80
2023/04/09 04:05:10;;;;;;;9.43;3.97;;;;;;;;;;5054069;28;20033;-80
2023/04/09 04:07:49;;;;;;;6.53;3.53;;;;;;;;;;5052773;28;20040;-81
2023/04/09 04:10:15;;;;;;;12.32;3.80;;;;;;;;;;5052545;28;20065;-80
2023/04/09 04:12:40;;;;;;;10.70;4.07;;;;;;;;;;5044550;28;20056;-79
2023/04/09 04:15:19;;;;;;;10.80;3.67;;;;;;;;;;5047279;28;20065;-81
2023/04/09 04:17:44;;;;;;;12.13;3.95;;;;;;;;;;5049367;28;20060;-81
2023/04/09 04:20:10;;;;;;;10.82;4.20;;;;;;;;;;5044785;28;20508;-81
2023/04/09 04:22:49;;;;;;;16.58;4.18;;;;;;;;;;5040736;28;20061;-81
2023/04/09 04:25:14;;;;;;;11.02;3.65;;;;;;;;;;5053310;28;20082;-81
2023/04/09 04:27:41;;;;;;;6.72;3.70;;;;;;;;;;5049504;28;20033;-80
2023/04/09 04:30:19;;;;;;;10.65;4.38;;;;;;;;;;5050974;28;20082;-81
2023/04/09 04:32:44;;;;;;;6.57;3.47;;;;;;;;;;5050524;28;20052;-80
2023/04/09 04:35:10;;;;;;;9.75;3.85;;;;;;;;;;5036653;28;20454;-81
2023/04/09 04:37:48;;;;;;;6.57;3.72;;;;;;;;;;5049509;28;20362;-81
2023/04/09 04:40:14;;;;;;;7.82;4.10;;;;;;;;;;5045526;28;20044;-79
2023/04/09 04:42:39;;;;;;;7.20;3.75;;;;;;;;;;5052781;28;20021;-80
2023/04/09 04:45:18;;;;;;;5.53;3.22;;;;;;;;;;5053243;28;20037;-81
2023/04/09 04:47:44;;;;;;;7.05;3.63;;;;;;;;;;5052148;28;20091;-80
2023/04/09 04:50:09;;;;;;;6.97;3.38;;;;;;;;;;5051360;28;20025;-80
2023/04/09 04:52:48;;;;;;;5.65;3.33;;;;;;;;;;5040572;28;20048;-81
2023/04/09 04:55:14;;;;;;;6.30;3.40;;;;;;;;;;5052194;28;20043;-80
2023/04/09 04:57:39;;;;;;;8.07;4.22;;;;;;;;;;5046618;28;20029;-80
2023/04/09 05:00:18;;;;;;;14.40;4.00;;;;;;;;;;5047888;28;20432;-80
2023/04/09 05:02:43;;;;;;;11.90;4.18;;;;;;;;;;5051814;28;20116;-79
2023/04/09 05:05:09;;;;;;;12.45;4.00;;;;;;;;;;5048945;28;20112;-80
2023/04/09 05:07:47;;;;;;;7.75;4.18;;;;;;;;;;5044944;28;20024;-80
2023/04/09 05:10:12;;;;;;;9.98;3.50;;;;;;;;;;5050094;28;20060;-81
2023/04/09 05:12:38;;;;;;;5.35;3.10;;;;;;;;;;5052594;28;20069;-81
2023/04/09 05:15:16;;;;;;;7.60;3.30;;;;;;;;;;5043702;28;20079;-80
2023/04/09 05:17:43;;;;;;;9.75;3.63;;;;;;;;;;5043035;28;20041;-81
2023/04/09 05:20:09;;;;;;;6.43;3.30;;;;;;;;;;5038121;28;20109;-81
2023/04/09 05:22:47;;;;;;;15.65;3.95;;;;;;;;;;5046340;28;20480;-80
2023/04/09 05:25:14;;;;;;;9.13;3.92;;;;;;;;;;5044083;28;20118;-80
2023/04/09 05:27:40;;;;;;;8.13;3.50;;;;;;;;;;5043910;28;20028;-79
2023/04/09 05:30:18;;;;;;;8.20;3.95;;;;;;;;;;5051215;28;20036;-81
2023/04/09 05:32:43;;;;;;;14.18;4.10;;;;;;;;;;5052191;28;20064;-79
2023/04/09 05:35:09;;;;;;;10.00;3.92;;;;;;;;;;5043253;28;20065;-80
2023/04/09 05:37:47;;;;;;;10.65;3.60;;;;;;;;;;5052415;28;20461;-81
2023/04/09 05:40:13;;;;;;;10.68;3.20;;;;;;;;;;5047569;28;20036;-80
2023/04/09 05:42:39;;;;;;;6.88;3.65;;;;;;;;;;5051984;28;20082;-80
2023/04/09 05:45:17;;;;;;;7.03;3.85;;;;;;;;;;5041229;28;20041;-80
2023/04/09 05:47:42;;;;;;;9.90;3.50;;;;;;;;;;5051947;28;20377;-80
2023/04/09 05:50:08;;;;;;;11.30;4.00;;;;;;;;;;5050035;28;20040;-80
2023/04/09 05:52:47;;;;;;;12.85;3.53;;;;;;;;;;5045380;28;20042;-80
2023/04/09 05:55:13;;;;;;;9.60;3.20;;;;;;;;;;5039783;28;20044;-80
2023/04/09 05:57:38;;;;;;;9.10;4.07;;;;;;;;;;5050116;28;20017;-78
2023/04/09 06:00:17;;;;;;;12.88;4.25;;;;;;;;;;5044143;28;20466;-80
2023/04/09 06:02:43;;;;;;;12.63;3.80;;;;;;;;;;5050342;28;20385;-80
2023/04/09 06:05:09;;;;;;;10.52;4.18;;;;;;;;;;5050683;28;20526;-80
2023/04/09 06:07:47;;;;;;;12.57;3.80;;;;;;;;;;5051677;28;20029;-81
2023/04/09 06:10:12;;;;;;;8.13;3.42;;;;;;;;;;5044280;28;20037;-81
2023/04/09 06:12:38;;;;;;;14.45;4.35;;;;;;;;;;5052773;28;20108;-80
2023/04/09 06:15:17;;;;;;;8.15;4.13;;;;;;;;;;5054528;28;20108;-81
2023/04/09 06:17:42;;;;;;;9.27;4.07;;;;;;;;;;5050562;28;20480;-79
2023/04/09 06:20:08;;;;;;;5.82;3.47;;;;;;;;;;5043476;28;20040;-81
2023/04/09 06:22:47;;;;;;;9.80;4.20;;;;;;;;;;5049762;28;20056;-81
2023/04/09 06:25:13;;;;;;;12.35;3.83;;;;;;;;;;5052035;28;20045;-82
2023/04/09 06:27:38;;;;;;;12.18;4.68;;;;;;;;;;5053349;28;20041;-81
2023/04/09 06:30:16;;;;;;;10.48;4.10;;;;;;;;;;5042177;28;20461;-80
2023/04/09 06:32:41;;;;;;;8.13;3.95;;;;;;;;;;5054393;28;20033;-79
2023/04/09 06:35:07;;;;;;;15.82;4.53;;;;;;;;;;5054484;28;20029;-80
2023/04/09 06:37:46;;;;;;;10.15;4.30;;;;;;;;;;5043800;28;20087;-80
2023/04/09 06:40:12;;;;;;;9.13;4.40;;;;;;;;;;5043566;28;20082;-80
2023/04/09 06:42:37;;;;;;;10.85;4.43;;;;;;;;;;5053747;28;20411;-80
2023/04/09 06:45:16;;;;;;;10.50;4.78;;;;;;;;;;5043996;28;20025;-80
2023/04/09 06:47:41;;;;;;;15.45;4.35;;;;;;;;;;5055147;28;20044;-80
2023/04/09 06:50:07;;;;;;;9.25;4.75;;;;;;;;;;5053877;28;20033;-80
2023/04/09 06:52:46;;;;;;;16.08;5.35;;;;;;;;;;5051043;28;20040;-80
2023/04/09 06:55:11;;;;;;;10.52;5.68;;;;;;;;;;5042462;28;20397;-81
2023/04/09 06:57:38;;;;;;;15.25;6.18;;;;;;;;;;5041862;28;20033;-80
2023/04/09 07:00:16;;;;;;;17.38;7.95;;;;;;;;;;5054008;28;20035;-80
2023/04/09 07:02:41;;;;;;;23.00;8.15;;;;;;;;;;5045256;28;20037;-80
2023/04/09 07:05:08;;;;;;;39.35;13.25;;;;;;;;;;5054696;28;20029;-80
2023/04/09 07:07:46;;;;;;;41.13;15.20;;;;;;;;;;5050779;28;20052;-81
2023/04/09 07:10:11;;;;;;;35.47;15.98;;;;;;;;;;5044629;28;20119;-81
2023/04/09 07:12:37;;;;;;;44.90;17.70;;;;;;;;;;5053169;28;20556;-81
2023/04/09 07:15:15;;;;;;;37.17;16.00;;;;;;;;;;5050112;28;20476;-81
2023/04/09 07:17:40;;;;;;;38.17;16.60;;;;;;;;;;5050511;28;20029;-81
2023/04/09 07:20:06;;;;;;;38.83;17.83;;;;;;;;;;5049909;28;20031;-81
2023/04/09 07:22:45;;;;;;;33.55;16.15;;;;;;;;;;5036350;28;20105;-81
2023/04/09 07:25:11;;;;;;;33.70;16.13;;;;;;;;;;5048911;28;20044;-81
2023/04/09 07:27:36;;;;;;;41.38;14.50;;;;;;;;;;5048862;28;20040;-81
2023/04/09 07:30:15;;;;;;;32.92;15.50;;;;;;;;;;5045973;28;20028;-81
2023/04/09 07:32:40;;;;;;;32.72;13.75;;;;;;;;;;5052487;28;20037;-80
2023/04/09 07:35:08;;;;;;;39.90;16.42;;;;;;;;;;5053278;28;20043;-81
2023/04/09 07:37:47;;;;;;;35.65;15.95;;;;;;;;;;5053207;28;20029;-81
2023/04/09 07:40:12;;;;;;;34.05;15.57;;;;;;;;;;5044343;28;20393;-80
2023/04/09 07:42:38;;;;;;;38.15;16.75;;;;;;;;;;5048005;28;20037;-80
2023/04/09 07:45:17;;;;;;;32.95;16.27;;;;;;;;;;5042581;28;20037;-81
2023/04/09 07:47:42;;;;;;;40.03;15.70;;;;;;;;;;5049844;28;20041;-81
2023/04/09 07:50:08;;;;;;;32.63;15.82;;;;;;;;;;5050929;28;20040;-81
2023/04/09 07:52:47;;;;;;;29.50;13.93;;;;;;;;;;5051230;28;20413;-82
2023/04/09 07:55:12;;;;;;;37.03;15.48;;;;;;;;;;5045983;28;20037;-80
2023/04/09 07:57:38;;;;;;;31.00;14.85;;;;;;;;;;5049708;28;20457;-81
2023/04/09 08:00:16;;;;;;;30.27;15.57;;;;;;;;;;5039548;28;20453;-81
2023/04/09 08:02:42;;;;;;;34.67;15.07;;;;;;;;;;5048122;28;20040;-81
2023/04/09 08:05:08;;;;;;;34.22;17.58;;;;;;;;;;5045999;28;20036;-81
2023/04/09 08:07:46;;;;;;;34.83;16.73;;;;;;;;;;5045549;28;20104;-81
2023/04/09 08:10:13;;;;;;;38.45;16.42;;;;;;;;;;5047589;28;20041;-80
2023/04/09 08:12:39;;;;;;;29.85;15.43;;;;;;;;;;5052185;28;20435;-81
2023/04/09 08:15:18;;;;;;;34.92;16.80;;;;;;;;;;5045112;28;20029;-81
2023/04/09 08:17:44;;;;;;;29.48;14.57;;;;;;;;;;5051134;28;20040;-81
2023/04/09 08:20:10;;;;;;;34.85;15.65;;;;;;;;;;5051945;28;20025;-80
2023/04/09 08:22:49;;;;;;;38.22;15.63;;;;;;;;;;5046434;28;20060;-82
2023/04/09 08:25:14;;;;;;;37.10;17.05;;;;;;;;;;5046145;28;20048;-81
2023/04/09 08:27:40;;;;;;;39.90;17.73;;;;;;;;;;5048150;28;20033;-81
2023/04/09 08:30:18;;;;;;;41.47;15.85;;;;;;;;;;5049653;28;20033;-81
2023/04/09 08:32:44;;;;;;;39.35;16.65;;;;;;;;;;5049492;28;20047;-81
2023/04/09 08:35:09;;;;;;;31.20;16.10;;;;;;;;;;5048390;28;20033;-81
2023/04/09 08:37:48;;;;;;;34.67;16.08;;;;;;;;;;5043297;28;20037;-81
2023/04/09 08:40:13;;;;;;;33.10;16.70;;;;;;;;;;5035767;28;20397;-81
2023/04/09 08:42:58;;;;;;;41.97;17.00;;;;;;;;;;5044815;28;20033;-80
2023/04/09 08:45:23;;;;;;;25.13;13.60;;;;;;;;;;5049963;28;20037;-81
2023/04/09 08:47:58;;;;;;;36.35;16.73;;;;;;;;;;5050679;28;20083;-81
2023/04/09 08:50:32;;;;;;;36.45;16.65;;;;;;;;;;5052001;28;20040;-81
2023/04/09 08:53:05;;;;;;;32.78;15.98;;;;;;;;;;5043534;28;20049;-81
2023/04/09 08:55:38;;;;;;;34.42;16.48;;;;;;;;;;5050133;28;20087;-81
2023/04/09 08:58:06;;;;;;;39.47;16.98;;;;;;;;;;5041152;28;20056;-81
2023/04/09 09:00:37;;;;;;;36.10;16.20;;;;;;;;;;5049780;28;20418;-80
2023/04/09 09:03:12;;;;;;;35.72;15.63;;;;;;;;;;5045490;28;20043;-81
2023/04/09 09:05:45;;;;;;;27.17;15.00;;;;;;;;;;5051600;28;20051;-81
2023/04/09 09:08:12;;;;;;;40.47;18.02;;;;;;;;;;5040714;28;20044;-80
2023/04/09 09:10:46;;;;;;;32.17;14.98;;;;;;;;;;5047824;28;20032;-80
2023/04/09 09:13:23;;;;;;;37.90;18.30;;;;;;;;;;5049176;28;20041;-82
2023/04/09 09:16:00;;;;;;;33.65;16.05;;;;;;;;;;5045638;28;20043;-81
2023/04/09 09:18:41;;;;;;;34.05;17.70;;;;;;;;;;5051104;28;20503;-81
2023/04/09 09:21:23;;;;;;;30.38;15.60;;;;;;;;;;5051195;28;20040;-80
2023/04/09 09:23:56;;;;;;;33.33;16.83;;;;;;;;;;5048389;28;20469;-80
2023/04/09 09:26:30;;;;;;;36.72;16.98;;;;;;;;;;5051684;28;20057;-80
2023/04/09 09:29:04;;;;;;;36.25;16.30;;;;;;;;;;5051891;28;20037;-81
2023/04/09 09:31:29;;;;;;;30.65;15.70;;;;;;;;;;5040616;28;20040;-81
2023/04/09 09:34:03;;;;;;;30.13;15.70;;;;;;;;;;5051608;28;20474;-81
2023/04/09 09:36:34;;;;;;;28.90;14.48;;;;;;;;;;5050323;28;20128;-81
2023/04/09 09:39:02;;;;;;;31.88;15.60;;;;;;;;;;5052855;28;20059;-81
2023/04/09 09:41:34;;;;;;;37.75;15.10;;;;;;;;;;5046779;28;20040;-81
2023/04/09 09:44:08;;;;;;;28.48;13.57;;;;;;;;;;5052206;28;20084;-81
2023/04/09 09:46:44;;;;;;;29.30;15.77;;;;;;;;;;5055567;28;20064;-81
2023/04/09 09:49:16;;;;;;;29.60;14.07;;;;;;;;;;5043639;28;20473;-81
2023/04/09 09:51:42;;;;;;;29.98;15.43;;;;;;;;;;5056291;28;20045;-81
2023/04/09 09:54:14;;;;;;;26.50;14.55;;;;;;;;;;5045781;28;20028;-81
2023/04/09 09:56:51;;;;;;;28.70;15.07;;;;;;;;;;5054424;28;20051;-81
2023/04/09 09:59:27;;;;;;;29.15;15.68;;;;;;;;;;5051967;28;20033;-82
2023/04/09 10:02:03;;;;;;;28.92;15.65;;;;;;;;;;5042690;28;20041;-82
2023/04/09 10:04:41;;;;;;;27.95;14.35;;;;;;;;;;5042657;28;20112;-82
2023/04/09 10:07:15;;;;;;;27.88;15.40;;;;;;;;;;5051459;28;20041;-82
2023/04/09 10:09:48;;;;;;;27.63;15.63;;;;;;;;;;5055809;28;20044;-82
2023/04/09 10:12:24;;;;;;;31.83;14.18;;;;;;;;;;5054768;28;20045;-81
2023/04/09 10:15:03;;;;;;;28.15;15.45;;;;;;;;;;5044235;28;20036;-81
2023/04/09 10:17:35;;;;;;;27.63;15.05;;;;;;;;;;5053913;28;20045;-82
2023/04/09 10:20:15;;;;;;;29.80;15.93;;;;;;;;;;5045941;28;20079;-81
2023/04/09 10:22:49;;;;;;;29.48;15.68;;;;;;;;;;5035642;28;20533;-82
2023/04/09 10:25:14;;;;;;;;;;;;;;;;;;5050277;28;20063;-82
2023/04/09 10:27:48;;;;;;;27.17;15.48;;;;;;;;;;5054371;28;19916;-83
2023/04/09 10:30:32;;;;;;;32.13;15.88;;;;;;;;;;5055405;28;20045;-82
2023/04/09 10:33:27;;;;;;;25.67;12.45;;;;;;;;;;5054381;28;20485;-81
2023/04/09 10:36:03;;;;;;;25.90;14.32;;;;;;;;;;5048240;28;20037;-82
2023/04/09 10:38:51;;;;;;;27.85;14.80;;;;;;;;;;5054105;28;20155;-82
2023/04/09 10:41:27;;;;;;;35.92;16.10;;;;;;;;;;5052997;28;20402;-82
2023/04/09 10:44:00;;;;;;;26.92;14.48;;;;;;;;;;5044479;28;20151;-83
2023/04/09 10:46:35;;;;;;;27.45;15.15;;;;;;;;;;5053811;28;20041;-82
2023/04/09 10:49:29;;;;;;;31.08;15.57;;;;;;;;;;5053509;28;20052;-82
2023/04/09 10:52:12;;;;;;;;;;;;;;;;;;5046163;28;20033;-81
2023/04/09 10:54:45;;;;;;;25.88;15.05;;;;;;;;;;5053879;28;19920;-83
2023/04/09 10:57:20;;;;;;;23.50;14.32;;;;;;;;;;5051937;28;20037;-82
2023/04/09 10:59:59;;;;;;;26.58;13.40;;;;;;;;;;5053721;28;20032;-83
2023/04/09 11:02:37;;;;;;;24.92;13.43;;;;;;;;;;5053943;28;20051;-83
2023/04/09 11:05:18;;;;;;;20.95;10.63;;;;;;;;;;5048099;28;20049;-82
2023/04/09 11:07:58;;;;;;;23.80;12.75;;;;;;;;;;5044025;28;20045;-83
2023/04/09 11:10:30;;;;;;;27.60;14.13;;;;;;;;;;5051717;28;20037;-82
2023/04/09 11:13:03;;;;;;;25.00;13.27;;;;;;;;;;5052969;28;20067;-82
2023/04/09 11:15:29;;;;;;;22.57;12.53;;;;;;;;;;5041907;28;20037;-82
2023/04/09 11:18:02;;;;;;;25.77;13.32;;;;;;;;;;5054446;28;20323;-82
2023/04/09 11:20:34;;;;;;;26.70;14.00;;;;;;;;;;5054398;28;20403;-82
2023/04/09 11:23:00;;;;;;;23.65;12.45;;;;;;;;;;5053114;28;20290;-83
2023/04/09 11:25:36;;;;;;;25.98;13.48;;;;;;;;;;5047123;28;20460;-82
2023/04/09 11:28:08;;;;;;;26.65;13.50;;;;;;;;;;5054488;28;20069;-82
2023/04/09 11:30:34;;;;;;;24.25;14.13;;;;;;;;;;5051521;28;20091;-83
2023/04/09 11:33:07;;;;;;;18.33;12.07;;;;;;;;;;5049626;28;20033;-82
2023/04/09 11:35:38;;;;;;;20.10;11.60;;;;;;;;;;5050411;28;20037;-82
2023/04/09 11:38:17;;;;;;;24.17;12.57;;;;;;;;;;5049952;28;20045;-83
2023/04/09 11:40:50;;;;;;;26.10;11.65;;;;;;;;;;5050135;28;20043;-83
2023/04/09 11:43:16;;;;;;;21.30;11.00;;;;;;;;;;5050884;28;20072;-83
2023/04/09 11:45:48;;;;;;;19.40;10.82;;;;;;;;;;5054253;28;20036;-83
2023/04/09 11:48:23;;;;;;;20.13;11.40;;;;;;;;;;5052709;28;20037;-83
2023/04/09 11:50:55;;;;;;;20.05;10.52;;;;;;;;;;5041507;28;20041;-82
2023/04/09 11:53:30;;;;;;;19.83;11.68;;;;;;;;;;5052571;28;20044;-82
2023/04/09 11:55:55;;;;;;;20.13;9.73;;;;;;;;;;5049778;28;20041;-82
2023/04/09 11:58:33;;;;;;;20.98;11.40;;;;;;;;;;5052733;28;20025;-83
2023/04/09 12:01:05;;;;;;;17.55;11.10;;;;;;;;;;5050236;28;20056;-82
2023/04/09 12:03:31;;;;;;;23.02;12.35;;;;;;;;;;5052034;28;20037;-82
2023/04/09 12:06:05;;;;;;;21.55;10.77;;;;;;;;;;5047522;28;20372;-82
2023/04/09 12:08:38;;;;;;;18.13;10.05;;;;;;;;;;5041688;28;20048;-82
2023/04/09 12:11:17;;;;;;;19.63;10.85;;;;;;;;;;5051728;28;20044;-83
2023/04/09 12:13:57;;;;;;;17.23;8.90;;;;;;;;;;5049468;28;20108;-82
2023/04/09 12:16:30;;;;;;;16.30;8.55;;;;;;;;;;5053696;28;20037;-82
2023/04/09 12:19:05;;;;;;;15.65;8.95;;;;;;;;;;5052917;28;20469;-82
2023/04/09 12:21:53;;;;;;;19.10;9.32;;;;;;;;;;5041266;28;20033;-82
2023/04/09 12:24:26;;;;;;;14.48;8.80;;;;;;;;;;5050272;28;20074;-82
2023/04/09 12:26:52;;;;;;;14.57;8.20;;;;;;;;;;5042584;28;20083;-81
2023/04/09 12:29:25;;;;;;;17.38;9.13;;;;;;;;;;5043492;28;20028;-83
2023/04/09 12:31:57;;;;;;;11.30;7.32;;;;;;;;;;5053338;28;20063;-82
2023/04/09 12:34:23;;;;;;;14.68;6.43;;;;;;;;;;5043532;28;20488;-82
2023/04/09 12:36:55;;;;;;;12.75;6.05;;;;;;;;;;5050398;28;20146;-82
2023/04/09 12:39:27;;;;;;;11.45;6.05;;;;;;;;;;5053284;28;20072;-81
2023/04/09 12:41:53;;;;;;;10.80;5.95;;;;;;;;;;5049084;28;20048;-81
2023/04/09 12:44:26;;;;;;;8.52;5.03;;;;;;;;;;5045394;28;20387;-83
2023/04/09 12:46:58;;;;;;;11.20;5.47;;;;;;;;;;5040123;28;20044;-82
2023/04/09 12:49:23;;;;;;;12.68;5.25;;;;;;;;;;5052158;28;20037;-82
2023/04/09 12:51:55;;;;;;;9.27;4.78;;;;;;;;;;5053167;28;20036;-82
2023/04/09 12:54:27;;;;;;;11.25;4.78;;;;;;;;;;5050902;28;20470;-81
2023/04/09 12:56:53;;;;;;;11.25;4.97;;;;;;;;;;5043121;28;20121;-82
2023/04/09 12:59:24;;;;;;;9.63;5.05;;;;;;;;;;5052845;28;20033;-82
2023/04/09 13:01:56;;;;;;;9.90;4.75;;;;;;;;;;5052939;28;20110;-81
2023/04/09 13:04:22;;;;;;;8.15;4.65;;;;;;;;;;5053360;28;20044;-82
2023/04/09 13:06:53;;;;;;;8.85;4.82;;;;;;;;;;5045458;28;20384;-82
2023/04/09 13:09:26;;;;;;;9.88;4.78;;;;;;;;;;5039968;28;20041;-83
2023/04/09 13:11:52;;;;;;;13.15;4.60;;;;;;;;;;5050115;28;20120;-82
2023/04/09 13:14:23;;;;;;;10.63;4.65;;;;;;;;;;5050770;28;20128;-83
2023/04/09 13:16:56;;;;;;;10.98;4.38;;;;;;;;;;5057058;28;20044;-83
2023/04/09 13:19:21;;;;;;;11.00;4.27;;;;;;;;;;5045002;28;20037;-82
2023/04/09 13:21:53;;;;;;;9.93;3.80;;;;;;;;;;5053925;28;20120;-82
2023/04/09 13:24:26;;;;;;;7.38;4.35;;;;;;;;;;5055656;28;20431;-82
2023/04/09 13:26:51;;;;;;;8.45;4.50;;;;;;;;;;5056708;28;20504;-82
2023/04/09 13:29:25;;;;;;;7.22;3.78;;;;;;;;;;5056359;28;20056;-82
2023/04/09 13:31:57;;;;;;;;;;;;;;;;;;5044825;28;20073;-82
2023/04/09 13:34:23;;;;;;;8.70;4.38;;;;;;;;;;5056657;28;19967;-83
2023/04/09 13:36:55;;;;;;;8.93;4.13;;;;;;;;;;5046255;28;20043;-83
2023/04/09 13:39:26;;;;;;;8.77;5.00;;;;;;;;;;5054316;28;20065;-82
2023/04/09 13:41:54;;;;;;;9.57;4.85;;;;;;;;;;5047874;28;20086;-83
2023/04/09 13:44:26;;;;;;;9.32;4.30;;;;;;;;;;5055321;28;20025;-82
2023/04/09 13:46:57;;;;;;;9.70;5.40;;;;;;;;;;5056039;28;20549;-82
2023/04/09 13:49:23;;;;;;;9.30;5.43;;;;;;;;;;5043784;28;20082;-82
2023/04/09 13:51:55;;;;;;;11.05;4.50;;;;;;;;;;5056584;28;20025;-82
2023/04/09 13:54:27;;;;;;;11.20;6.18;;;;;;;;;;5045943;28;20500;-83
2023/04/09 13:56:53;;;;;;;8.63;5.10;;;;;;;;;;5055964;28;20503;-82
2023/04/09 13:59:24;;;;;;;8.05;4.60;;;;;;;;;;5056152;28;20070;-82
2023/04/09 14:01:56;;;;;;;7.10;3.60;;;;;;;;;;5055661;28;20401;-82
2023/04/09 14:04:22;;;;;;;6.47;2.80;;;;;;;;;;5056101;28;20040;-82
2023/04/09 14:06:54;;;;;;;4.72;2.78;;;;;;;;;;5055900;28;20496;-83
2023/04/09 14:09:26;;;;;;;5.53;2.72;;;;;;;;;;5056018;28;20047;-81
2023/04/09 14:11:53;;;;;;;5.40;2.88;;;;;;;;;;5056134;28;20052;-82
2023/04/09 14:14:25;;;;;;;4.95;2.80;;;;;;;;;;5055908;28;20037;-82
2023/04/09 14:16:57;;;;;;;8.48;2.40;;;;;;;;;;5055717;28;20135;-82
2023/04/09 14:19:23;;;;;;;3.90;1.85;;;;;;;;;;5055757;28;20043;-83
2023/04/09 14:21:54;;;;;;;5.93;2.70;;;;;;;;;;5055662;28;20025;-82
2023/04/09 14:24:26;;;;;;;3.92;2.10;;;;;;;;;;5053548;28;20497;-82
2023/04/09 14:26:52;;;;;;;6.43;2.40;;;;;;;;;;5048541;28;20057;-82
2023/04/09 14:29:24;;;;;;;6.45;2.67;;;;;;;;;;5055612;28;20086;-82
2023/04/09 14:31:56;;;;;;;5.05;2.10;;;;;;;;;;5045772;28;20113;-82
2023/04/09 14:34:22;;;;;;;4.90;2.17;;;;;;;;;;5046402;28;20037;-82
2023/04/09 14:36:53;;;;;;;8.88;2.58;;;;;;;;;;5055557;28;20453;-82
2023/04/09 14:39:26;;;;;;;6.70;2.42;;;;;;;;;;5055190;28;20045;-82
2023/04/09 14:41:51;;;;;;;6.90;2.43;;;;;;;;;;5055523;28;20086;-82
2023/04/09 14:44:26;;;;;;;5.05;2.60;;;;;;;;;;5055377;28;20025;-82
2023/04/09 14:46:58;;;;;;;3.88;2.20;;;;;;;;;;5042180;28;20040;-82
2023/04/09 14:49:30;;;;;;;4.97;2.22;;;;;;;;;;5054182;28;20053;-82
2023/04/09 14:51:56;;;;;;;7.05;2.92;;;;;;;;;;5042884;28;20048;-80
2023/04/09 14:54:29;;;;;;;5.75;2.35;;;;;;;;;;5055240;28;20029;-81
2023/04/09 14:57:02;;;;;;;6.18;2.40;;;;;;;;;;5049456;28;20041;-82